Partridge, Illinois
Current Conditions -  °F | °C
As of 9:55 AM on Friday 21 Nov 2014 (Local Time) from KC75 Reporting Station
Clear Clear  
Wind Chill: 14°   Ceiling: Unl
Heat Index: 24°   Visibility: 10mi
Dew Point:   Wind: 9mph
Humidity: 46%   Direction: 140°SE
Pressure: 30.45"   Gusts: NA
Location:  40.7942°N, 89.4075°W
Report Text: KC75 211555Z AUTO 14008KT 10SM CLR M04/M14 A3045 RMK AO2 T10451145
Loading
Personal Weather Stations






























Interactive Weather Map New forecast layout! Learn more

10-Day Weather Forecast

Advertisements
Track Severe Weather on mobile